Time;durP1;ratioP1;P1;durP2;ratioP2;P2;SDS_P1;SDS_P2;PMS_P1;PMS_P2;Temp;Humidity;BMP_temperature;BMP_pressure;BME280_temperature;BME280_humidity;BME280_pressure;Samples;Min_cycle;Max_cycle;Signal;HPM_P1;HPM_P2
2023/07/29 00:00:42;;;;;;;6.97;4.93;;;;;;;;;;5005168;28;20435;-87
2023/07/29 00:03:08;;;;;;;9.05;5.00;;;;;;;;;;5003436;28;20469;-86
2023/07/29 00:05:34;;;;;;;6.68;4.57;;;;;;;;;;5011213;28;20149;-87
2023/07/29 00:08:00;;;;;;;8.20;5.25;;;;;;;;;;4993717;28;20120;-87
2023/07/29 00:10:27;;;;;;;8.38;5.00;;;;;;;;;;5009394;28;20080;-86
2023/07/29 00:12:53;;;;;;;6.35;4.60;;;;;;;;;;5011269;28;20497;-87
2023/07/29 00:15:19;;;;;;;7.80;5.22;;;;;;;;;;5009978;28;20375;-87
2023/07/29 00:17:45;;;;;;;6.40;4.13;;;;;;;;;;5009800;28;20412;-86
2023/07/29 00:20:11;;;;;;;7.22;4.43;;;;;;;;;;5010370;28;20049;-86
2023/07/29 00:22:37;;;;;;;6.95;4.03;;;;;;;;;;5010651;28;20558;-86
2023/07/29 00:25:04;;;;;;;6.45;5.15;;;;;;;;;;5006072;28;20053;-86
2023/07/29 00:27:30;;;;;;;5.75;4.78;;;;;;;;;;5010100;28;20038;-86
2023/07/29 00:29:56;;;;;;;5.72;4.60;;;;;;;;;;5000328;28;20475;-86
2023/07/29 00:32:22;;;;;;;6.25;4.40;;;;;;;;;;5007770;28;20317;-86
2023/07/29 00:34:48;;;;;;;8.77;4.72;;;;;;;;;;5010336;28;20044;-86
2023/07/29 00:37:14;;;;;;;5.75;4.28;;;;;;;;;;5007466;28;20133;-86
2023/07/29 00:39:40;;;;;;;7.32;4.65;;;;;;;;;;5009978;28;20052;-86
2023/07/29 00:42:06;;;;;;;6.68;4.38;;;;;;;;;;4989074;28;20125;-86
2023/07/29 00:44:32;;;;;;;6.60;4.13;;;;;;;;;;4998536;28;20092;-86
2023/07/29 00:46:59;;;;;;;7.55;4.75;;;;;;;;;;5010346;28;20447;-85
2023/07/29 00:49:25;;;;;;;6.30;3.70;;;;;;;;;;5011411;28;20042;-86
2023/07/29 00:51:51;;;;;;;7.35;4.22;;;;;;;;;;5010861;28;20491;-86
2023/07/29 00:54:17;;;;;;;5.93;4.50;;;;;;;;;;5008172;28;20073;-86
2023/07/29 00:56:43;;;;;;;5.93;4.32;;;;;;;;;;5010970;28;20112;-86
2023/07/29 00:59:09;;;;;;;5.03;3.80;;;;;;;;;;5010489;28;20112;-87
2023/07/29 01:01:36;;;;;;;8.25;4.18;;;;;;;;;;5008686;28;20387;-86
2023/07/29 01:04:02;;;;;;;5.97;3.90;;;;;;;;;;4992100;28;20073;-86
2023/07/29 01:06:30;;;;;;;6.90;4.00;;;;;;;;;;4990881;28;20088;-87
2023/07/29 01:09:02;;;;;;;6.85;4.65;;;;;;;;;;5010195;28;20050;-86
2023/07/29 01:11:34;;;;;;;7.72;4.57;;;;;;;;;;5006078;28;20444;-86
2023/07/29 01:14:04;;;;;;;6.28;3.72;;;;;;;;;;4989348;28;20049;-86
2023/07/29 01:16:31;;;;;;;5.47;4.20;;;;;;;;;;5009894;28;20057;-86
2023/07/29 01:18:59;;;;;;;7.28;4.20;;;;;;;;;;5012005;28;20056;-86
2023/07/29 01:21:26;;;;;;;7.68;4.45;;;;;;;;;;4995969;28;20097;-86
2023/07/29 01:23:59;;;;;;;5.60;3.92;;;;;;;;;;4991474;28;20062;-86
2023/07/29 01:26:25;;;;;;;6.45;3.75;;;;;;;;;;5000060;28;20045;-86
2023/07/29 01:28:51;;;;;;;6.85;4.15;;;;;;;;;;5009139;28;20120;-86
2023/07/29 01:31:22;;;;;;;5.53;4.20;;;;;;;;;;4990547;28;20049;-86
2023/07/29 01:33:59;;;;;;;5.30;3.85;;;;;;;;;;4992808;28;20041;-86
2023/07/29 01:36:28;;;;;;;5.95;4.22;;;;;;;;;;5010905;28;20419;-86
2023/07/29 01:38:55;;;;;;;6.82;3.70;;;;;;;;;;4999434;28;20407;-86
2023/07/29 01:41:22;;;;;;;14.98;6.18;;;;;;;;;;5005111;28;20057;-86
2023/07/29 01:43:48;;;;;;;6.28;4.32;;;;;;;;;;5012408;28;20046;-86
2023/07/29 01:46:15;;;;;;;5.45;3.88;;;;;;;;;;5011877;28;20066;-85
2023/07/29 01:48:41;;;;;;;6.15;4.03;;;;;;;;;;5013623;28;20042;-86
2023/07/29 01:51:07;;;;;;;5.78;4.10;;;;;;;;;;4999658;28;20054;-86
2023/07/29 01:53:33;;;;;;;6.32;3.92;;;;;;;;;;4993175;28;20057;-86
2023/07/29 01:56:00;;;;;;;7.50;4.68;;;;;;;;;;5014141;28;20111;-85
2023/07/29 01:58:26;;;;;;;7.45;4.38;;;;;;;;;;4998000;28;20041;-86
2023/07/29 02:00:52;;;;;;;6.53;4.18;;;;;;;;;;5009098;28;20038;-86
2023/07/29 02:03:18;;;;;;;6.57;4.38;;;;;;;;;;4993025;28;20033;-86
2023/07/29 02:05:44;;;;;;;5.88;4.05;;;;;;;;;;4992510;28;20037;-88
2023/07/29 02:08:10;;;;;;;5.65;4.18;;;;;;;;;;4991990;28;20046;-87
2023/07/29 02:10:37;;;;;;;6.53;4.10;;;;;;;;;;4985896;28;20053;-85
2023/07/29 02:13:03;;;;;;;5.88;4.18;;;;;;;;;;4999874;28;20045;-85
2023/07/29 02:15:29;;;;;;;5.65;3.75;;;;;;;;;;5020816;28;20122;-84
2023/07/29 02:17:55;;;;;;;5.65;3.53;;;;;;;;;;5009427;28;20100;-84
2023/07/29 02:20:21;;;;;;;6.70;4.10;;;;;;;;;;4980237;28;20046;-84
2023/07/29 02:22:48;;;;;;;5.60;3.25;;;;;;;;;;4991071;28;20049;-84
2023/07/29 02:25:14;;;;;;;5.15;3.42;;;;;;;;;;4989522;28;20038;-84
2023/07/29 02:27:40;;;;;;;6.03;3.97;;;;;;;;;;5008193;28;20038;-85
2023/07/29 02:30:09;;;;;;;6.28;3.55;;;;;;;;;;5009676;28;20045;-84
2023/07/29 02:32:35;;;;;;;4.50;3.53;;;;;;;;;;5003162;28;20040;-83
2023/07/29 02:35:01;;;;;;;4.95;3.40;;;;;;;;;;4979697;28;20104;-83
2023/07/29 02:37:27;;;;;;;4.15;3.53;;;;;;;;;;4988245;28;20065;-83
2023/07/29 02:39:53;;;;;;;4.95;3.05;;;;;;;;;;5008463;28;20112;-83
2023/07/29 02:42:19;;;;;;;4.97;3.30;;;;;;;;;;5007261;28;20087;-83
2023/07/29 02:44:45;;;;;;;4.97;3.50;;;;;;;;;;4982959;28;20120;-84
2023/07/29 02:47:11;;;;;;;4.93;3.42;;;;;;;;;;4979147;28;20042;-84
2023/07/29 02:49:37;;;;;;;6.05;3.22;;;;;;;;;;5005193;28;20041;-84
2023/07/29 02:52:03;;;;;;;4.75;3.50;;;;;;;;;;4991643;28;20053;-84
2023/07/29 02:54:29;;;;;;;5.13;3.40;;;;;;;;;;5009274;28;20048;-84
2023/07/29 02:56:55;;;;;;;4.97;3.63;;;;;;;;;;5009102;28;20543;-84
2023/07/29 02:59:21;;;;;;;5.30;3.28;;;;;;;;;;5008692;28;20172;-84
2023/07/29 03:01:47;;;;;;;4.65;2.92;;;;;;;;;;5008713;28;20204;-84
2023/07/29 03:04:13;;;;;;;4.20;3.05;;;;;;;;;;5005498;28;20038;-84
2023/07/29 03:06:39;;;;;;;6.82;3.05;;;;;;;;;;5015057;28;20045;-84
2023/07/29 03:09:05;;;;;;;5.07;2.85;;;;;;;;;;5016455;28;20050;-84
2023/07/29 03:11:31;;;;;;;4.13;3.17;;;;;;;;;;4993711;28;20076;-84
2023/07/29 03:13:57;;;;;;;4.35;2.80;;;;;;;;;;5015397;28;20414;-84
2023/07/29 03:16:24;;;;;;;3.88;2.35;;;;;;;;;;5012984;28;20402;-84
2023/07/29 03:18:50;;;;;;;4.95;2.42;;;;;;;;;;5012755;28;20042;-84
2023/07/29 03:21:16;;;;;;;4.15;2.67;;;;;;;;;;5011202;28;20125;-84
2023/07/29 03:23:42;;;;;;;3.55;2.75;;;;;;;;;;4998112;28;20487;-84
2023/07/29 03:26:11;;;;;;;5.72;3.05;;;;;;;;;;4994987;28;20052;-84
2023/07/29 03:28:40;;;;;;;4.07;2.95;;;;;;;;;;5003166;28;20318;-84
2023/07/29 03:31:07;;;;;;;5.32;2.70;;;;;;;;;;5008956;28;20046;-84
2023/07/29 03:33:33;;;;;;;3.75;2.65;;;;;;;;;;5015345;28;20117;-84
2023/07/29 03:35:59;;;;;;;3.55;2.90;;;;;;;;;;5012856;28;20334;-84
2023/07/29 03:38:25;;;;;;;3.03;2.30;;;;;;;;;;5004943;28;20535;-83
2023/07/29 03:40:51;;;;;;;5.25;2.90;;;;;;;;;;5014003;28;20050;-84
2023/07/29 03:43:18;;;;;;;4.13;2.67;;;;;;;;;;4991237;28;20077;-84
2023/07/29 03:45:44;;;;;;;3.33;2.47;;;;;;;;;;4997003;28;20088;-84
2023/07/29 03:48:10;;;;;;;4.47;2.90;;;;;;;;;;4996434;28;20077;-84
2023/07/29 03:50:37;;;;;;;4.15;2.78;;;;;;;;;;4996794;28;20046;-84
2023/07/29 03:53:03;;;;;;;4.00;2.75;;;;;;;;;;5015483;28;20042;-84
2023/07/29 03:55:32;;;;;;;3.08;2.13;;;;;;;;;;5013473;28;20042;-84
2023/07/29 03:57:59;;;;;;;4.55;2.60;;;;;;;;;;5001267;28;20046;-85
2023/07/29 04:00:25;;;;;;;4.88;2.90;;;;;;;;;;4998602;28;20041;-84
2023/07/29 04:02:51;;;;;;;4.40;2.30;;;;;;;;;;5013689;28;20030;-84
2023/07/29 04:05:17;;;;;;;3.28;2.17;;;;;;;;;;4996442;28;20042;-84
2023/07/29 04:07:43;;;;;;;2.97;2.20;;;;;;;;;;5014831;28;20528;-84
2023/07/29 04:10:09;;;;;;;3.45;2.28;;;;;;;;;;4996122;28;20506;-84
2023/07/29 04:12:37;;;;;;;2.95;1.83;;;;;;;;;;5010638;28;20141;-84
2023/07/29 04:15:03;;;;;;;2.90;2.00;;;;;;;;;;5003029;28;20042;-84
2023/07/29 04:17:29;;;;;;;2.95;1.95;;;;;;;;;;5010435;28;20455;-84
2023/07/29 04:19:55;;;;;;;3.30;2.10;;;;;;;;;;4994101;28;20061;-84
2023/07/29 04:22:21;;;;;;;2.63;1.95;;;;;;;;;;5011322;28;20092;-84
2023/07/29 04:24:47;;;;;;;2.85;2.03;;;;;;;;;;5008783;28;20045;-84
2023/07/29 04:27:13;;;;;;;3.13;2.08;;;;;;;;;;4993123;28;20129;-85
2023/07/29 04:29:39;;;;;;;3.40;2.20;;;;;;;;;;4994569;28;20630;-84
2023/07/29 04:32:06;;;;;;;3.10;2.20;;;;;;;;;;5011417;28;20088;-84
2023/07/29 04:34:32;;;;;;;3.28;1.70;;;;;;;;;;5009624;28;20438;-84
2023/07/29 04:36:58;;;;;;;4.95;2.58;;;;;;;;;;5007594;28;20045;-85
2023/07/29 04:39:24;;;;;;;3.33;1.90;;;;;;;;;;5009637;28;20152;-84
2023/07/29 04:41:51;;;;;;;2.35;1.77;;;;;;;;;;5011318;28;20049;-85
2023/07/29 04:44:17;;;;;;;2.83;1.73;;;;;;;;;;5006196;28;20042;-84
2023/07/29 04:46:43;;;;;;;2.15;1.80;;;;;;;;;;5010430;28;20484;-84
2023/07/29 04:49:09;;;;;;;2.58;1.73;;;;;;;;;;5011485;28;20069;-84
2023/07/29 04:51:37;;;;;;;2.08;1.50;;;;;;;;;;5010273;28;20435;-84
2023/07/29 04:54:03;;;;;;;2.28;1.25;;;;;;;;;;5009666;28;20046;-85
2023/07/29 04:56:29;;;;;;;3.42;1.55;;;;;;;;;;4992999;28;20041;-84
2023/07/29 04:58:55;;;;;;;3.10;1.45;;;;;;;;;;5010510;28;20041;-84
2023/07/29 05:01:21;;;;;;;3.08;1.60;;;;;;;;;;4989371;28;20133;-85
2023/07/29 05:03:47;;;;;;;2.88;1.67;;;;;;;;;;5006025;28;20113;-84
2023/07/29 05:06:13;;;;;;;2.20;1.58;;;;;;;;;;5008702;28;20372;-84
2023/07/29 05:08:39;;;;;;;2.25;1.70;;;;;;;;;;5006656;28;20045;-84
2023/07/29 05:11:05;;;;;;;2.10;1.40;;;;;;;;;;5003148;28;20038;-85
2023/07/29 05:13:31;;;;;;;4.07;1.65;;;;;;;;;;4990811;28;20046;-85
2023/07/29 05:15:57;;;;;;;3.50;1.80;;;;;;;;;;5007587;28;20418;-85
2023/07/29 05:18:23;;;;;;;2.85;1.55;;;;;;;;;;4989882;28;20045;-90
2023/07/29 05:20:49;;;;;;;2.83;1.85;;;;;;;;;;4999640;28;20494;-86
2023/07/29 05:23:15;;;;;;;2.28;1.60;;;;;;;;;;4987807;28;20038;-86
2023/07/29 05:25:41;;;;;;;2.83;1.60;;;;;;;;;;4986219;28;20510;-83
2023/07/29 05:28:07;;;;;;;2.45;1.73;;;;;;;;;;5010456;28;20088;-81
2023/07/29 05:30:37;;;;;;;3.85;2.10;;;;;;;;;;4992657;28;20079;-82
2023/07/29 05:33:03;;;;;;;2.97;1.42;;;;;;;;;;5010742;28;20046;-81
2023/07/29 05:35:29;;;;;;;3.15;1.80;;;;;;;;;;5000488;28;20430;-82
2023/07/29 05:37:55;;;;;;;2.35;1.63;;;;;;;;;;5010662;28;20042;-82
2023/07/29 05:40:21;;;;;;;4.07;1.70;;;;;;;;;;4981241;28;20104;-81
2023/07/29 05:42:47;;;;;;;4.40;1.90;;;;;;;;;;4982966;28;20046;-82
2023/07/29 05:45:14;;;;;;;2.92;1.60;;;;;;;;;;4991696;28;20085;-83
2023/07/29 05:47:40;;;;;;;2.15;1.52;;;;;;;;;;4990420;28;20097;-82
2023/07/29 05:50:06;;;;;;;2.40;1.65;;;;;;;;;;4991227;28;20553;-82
2023/07/29 05:52:32;;;;;;;3.25;1.98;;;;;;;;;;4989966;28;20066;-82
2023/07/29 05:54:58;;;;;;;3.13;1.92;;;;;;;;;;4975684;28;20046;-82
2023/07/29 05:57:24;;;;;;;2.10;1.83;;;;;;;;;;4974643;28;20492;-81
2023/07/29 05:59:50;;;;;;;4.10;2.10;;;;;;;;;;4970238;28;20054;-82
2023/07/29 06:02:16;;;;;;;2.75;2.22;;;;;;;;;;4971304;28;20053;-81
2023/07/29 06:04:42;;;;;;;2.40;2.00;;;;;;;;;;4984936;28;20038;-81
2023/07/29 06:07:08;;;;;;;4.50;2.15;;;;;;;;;;4992908;28;20046;-82
2023/07/29 06:09:34;;;;;;;2.30;1.88;;;;;;;;;;4976764;28;20042;-87
2023/07/29 06:12:00;;;;;;;5.00;2.38;;;;;;;;;;4975242;28;20047;-85
2023/07/29 06:14:26;;;;;;;4.18;2.55;;;;;;;;;;4976691;28;20104;-85
2023/07/29 06:16:52;;;;;;;4.22;2.10;;;;;;;;;;4990272;28;20451;-86
2023/07/29 06:19:19;;;;;;;3.17;2.45;;;;;;;;;;4988002;28;20045;-87
2023/07/29 06:21:45;;;;;;;4.40;2.03;;;;;;;;;;4988865;28;20070;-84
2023/07/29 06:24:11;;;;;;;6.32;2.63;;;;;;;;;;4982659;28;21176;-84
2023/07/29 06:26:37;;;;;;;6.43;2.92;;;;;;;;;;4988243;28;20053;-87
2023/07/29 06:29:03;;;;;;;4.18;2.42;;;;;;;;;;4979986;28;20046;-85
2023/07/29 06:31:29;;;;;;;4.65;2.42;;;;;;;;;;4983164;28;20038;-86
2023/07/29 06:33:55;;;;;;;3.80;2.20;;;;;;;;;;4981830;28;20129;-87
2023/07/29 06:36:21;;;;;;;6.57;2.72;;;;;;;;;;4983448;28;20038;-84
2023/07/29 06:38:47;;;;;;;5.35;2.67;;;;;;;;;;4989761;28;20503;-85
2023/07/29 06:41:13;;;;;;;5.72;2.60;;;;;;;;;;4972356;28;20069;-85
2023/07/29 06:43:40;;;;;;;4.43;2.75;;;;;;;;;;4972285;28;20046;-85
2023/07/29 06:46:06;;;;;;;5.15;2.70;;;;;;;;;;4990308;28;20426;-85
2023/07/29 06:48:32;;;;;;;4.30;2.28;;;;;;;;;;4981895;28;20172;-87
2023/07/29 06:51:00;;;;;;;6.13;3.15;;;;;;;;;;5010319;28;20053;-85
2023/07/29 06:53:26;;;;;;;5.88;2.85;;;;;;;;;;5008198;28;20413;-85
2023/07/29 06:55:53;;;;;;;3.90;2.75;;;;;;;;;;5003577;28;20450;-88
2023/07/29 06:58:19;;;;;;;4.55;3.00;;;;;;;;;;5008945;28;20038;-88
2023/07/29 07:00:45;;;;;;;4.45;3.00;;;;;;;;;;5009953;28;20042;-87
2023/07/29 07:03:11;;;;;;;5.03;2.95;;;;;;;;;;5019703;28;20461;-89
2023/07/29 07:05:37;;;;;;;7.95;3.70;;;;;;;;;;4992244;28;20045;-86
2023/07/29 07:08:03;;;;;;;6.57;3.22;;;;;;;;;;4978494;28;20042;-87
2023/07/29 07:10:29;;;;;;;4.22;3.25;;;;;;;;;;5002472;28;20030;-84
2023/07/29 07:12:55;;;;;;;8.57;4.90;;;;;;;;;;4995640;28;20030;-80
2023/07/29 07:15:21;;;;;;;4.28;2.95;;;;;;;;;;4991877;28;20038;-82
2023/07/29 07:17:47;;;;;;;5.30;3.63;;;;;;;;;;5000718;28;20034;-81
2023/07/29 07:20:13;;;;;;;7.55;4.85;;;;;;;;;;5007966;28;20070;-81
2023/07/29 07:22:39;;;;;;;7.68;3.85;;;;;;;;;;5010545;28;20042;-80
2023/07/29 07:25:05;;;;;;;5.60;3.85;;;;;;;;;;4995158;28;20415;-80
2023/07/29 07:27:31;;;;;;;8.23;3.65;;;;;;;;;;4996258;28;20041;-80
2023/07/29 07:29:57;;;;;;;7.07;3.95;;;;;;;;;;5003301;28;20037;-80
2023/07/29 07:32:23;;;;;;;5.68;3.63;;;;;;;;;;5005427;28;20049;-81
2023/07/29 07:34:49;;;;;;;7.43;4.32;;;;;;;;;;5001957;28;20046;-80
2023/07/29 07:37:16;;;;;;;6.53;3.95;;;;;;;;;;5009475;28;20037;-80
2023/07/29 07:39:42;;;;;;;6.75;4.35;;;;;;;;;;4981194;28;20046;-86
2023/07/29 07:42:08;;;;;;;6.88;3.83;;;;;;;;;;5001237;28;20077;-84
2023/07/29 07:44:34;;;;;;;5.78;3.90;;;;;;;;;;5001452;28;20112;-84
2023/07/29 07:47:00;;;;;;;4.82;3.20;;;;;;;;;;5004736;28;20046;-82
2023/07/29 07:49:26;;;;;;;4.80;3.20;;;;;;;;;;4981792;28;20050;-80
2023/07/29 07:51:52;;;;;;;5.32;4.57;;;;;;;;;;4987653;28;20084;-82
2023/07/29 07:54:18;;;;;;;5.72;3.78;;;;;;;;;;5002334;28;20415;-82
2023/07/29 07:56:44;;;;;;;4.72;2.75;;;;;;;;;;4999395;28;20038;-80
2023/07/29 07:59:10;;;;;;;6.15;3.45;;;;;;;;;;4975780;28;20049;-81
2023/07/29 08:01:37;;;;;;;6.97;3.78;;;;;;;;;;5010046;28;20049;-80
2023/07/29 08:04:03;;;;;;;4.60;3.92;;;;;;;;;;4994971;28;20045;-81
2023/07/29 08:06:30;;;;;;;3.50;3.00;;;;;;;;;;5011050;28;20030;-80
2023/07/29 08:08:56;;;;;;;6.50;3.40;;;;;;;;;;5011338;28;20551;-81
2023/07/29 08:11:22;;;;;;;7.28;4.32;;;;;;;;;;5012070;28;20042;-82
2023/07/29 08:13:48;;;;;;;6.70;3.38;;;;;;;;;;4993954;28;20050;-82
2023/07/29 08:16:14;;;;;;;4.68;2.78;;;;;;;;;;4994663;28;20046;-82
2023/07/29 08:18:40;;;;;;;5.85;2.92;;;;;;;;;;4989395;28;20472;-83
2023/07/29 08:21:07;;;;;;;4.72;2.72;;;;;;;;;;4987892;28;20088;-83
2023/07/29 08:23:34;;;;;;;3.90;3.13;;;;;;;;;;4974698;28;20276;-83
2023/07/29 08:26:01;;;;;;;3.75;3.10;;;;;;;;;;4975389;28;20068;-84
2023/07/29 08:28:31;;;;;;;6.00;3.33;;;;;;;;;;4992381;28;20049;-80
2023/07/29 08:30:57;;;;;;;;;;;;;;;;;;4990451;28;20561;-80
2023/07/29 08:33:23;;;;;;;3.33;3.03;;;;;;;;;;4995888;28;19917;-81
2023/07/29 08:35:49;;;;;;;5.68;3.20;;;;;;;;;;5011976;28;20120;-81
2023/07/29 08:38:15;;;;;;;3.63;3.13;;;;;;;;;;5008505;28;20046;-82
2023/07/29 08:40:51;;;;;;;5.95;3.42;;;;;;;;;;4988011;28;20060;-83
2023/07/29 08:43:17;;;;;;;5.60;3.72;;;;;;;;;;4994451;28;20504;-83
2023/07/29 08:45:44;;;;;;;4.53;2.70;;;;;;;;;;5011985;28;20042;-82
2023/07/29 08:48:11;;;;;;;2.42;2.25;;;;;;;;;;5009101;28;20045;-82
2023/07/29 08:50:37;;;;;;;3.88;2.58;;;;;;;;;;5008530;28;20053;-82
2023/07/29 08:53:06;;;;;;;3.35;2.53;;;;;;;;;;5011213;28;20052;-81
2023/07/29 08:55:33;;;;;;;4.55;2.70;;;;;;;;;;5010796;28;20041;-81
2023/07/29 08:57:59;;;;;;;3.88;2.25;;;;;;;;;;5009346;28;20050;-82
2023/07/29 09:00:29;;;;;;;4.63;2.42;;;;;;;;;;4991587;28;20085;-82
2023/07/29 09:02:55;;;;;;;3.10;2.33;;;;;;;;;;4984710;28;20097;-82
2023/07/29 09:05:21;;;;;;;3.80;2.30;;;;;;;;;;5000772;28;20048;-82
2023/07/29 09:07:48;;;;;;;3.78;2.20;;;;;;;;;;4983297;28;20034;-82
2023/07/29 09:10:15;;;;;;;3.10;2.22;;;;;;;;;;4990716;28;20034;-81
2023/07/29 09:12:41;;;;;;;3.03;2.17;;;;;;;;;;4988974;28;20057;-82
2023/07/29 09:15:07;;;;;;;2.47;1.95;;;;;;;;;;4992135;28;20041;-83
2023/07/29 09:17:33;;;;;;;2.78;2.13;;;;;;;;;;4991379;28;20042;-82
2023/07/29 09:20:00;;;;;;;2.85;1.80;;;;;;;;;;5002463;28;20068;-82
2023/07/29 09:22:27;;;;;;;4.45;2.05;;;;;;;;;;4992399;28;20410;-81
2023/07/29 09:24:53;;;;;;;2.42;1.90;;;;;;;;;;4993876;28;20042;-82
2023/07/29 09:27:31;;;;;;;2.15;1.60;;;;;;;;;;5007778;28;20041;-81
2023/07/29 09:29:58;;;;;;;1.75;1.65;;;;;;;;;;5011009;28;20038;-83
2023/07/29 09:32:25;;;;;;;2.63;1.60;;;;;;;;;;4993142;28;20112;-81
2023/07/29 09:34:51;;;;;;;2.45;1.30;;;;;;;;;;4987612;28;20050;-81
2023/07/29 09:37:18;;;;;;;2.03;1.63;;;;;;;;;;4989908;28;20088;-83
2023/07/29 09:39:44;;;;;;;2.30;1.38;;;;;;;;;;5002591;28;20042;-84
2023/07/29 09:42:20;;;;;;;1.95;1.20;;;;;;;;;;5011404;28;20053;-86
2023/07/29 09:44:47;;;;;;;1.60;1.17;;;;;;;;;;5010833;28;20042;-85
2023/07/29 09:47:20;;;;;;;2.90;1.50;;;;;;;;;;5008788;28;20506;-85
2023/07/29 09:49:46;;;;;;;2.67;1.63;;;;;;;;;;5009310;28;20034;-84
2023/07/29 09:52:12;;;;;;;3.38;1.75;;;;;;;;;;5011019;28;20460;-84
2023/07/29 09:54:38;;;;;;;1.98;1.67;;;;;;;;;;5008400;28;20563;-83
2023/07/29 09:57:07;;;;;;;3.05;1.88;;;;;;;;;;4991576;28;20042;-84
2023/07/29 09:59:36;;;;;;;2.33;1.40;;;;;;;;;;4998122;28;20037;-85
2023/07/29 10:02:02;;;;;;;2.47;1.40;;;;;;;;;;5010505;28;20049;-85
2023/07/29 10:04:29;;;;;;;2.88;1.30;;;;;;;;;;4992650;28;20121;-83
2023/07/29 10:06:55;;;;;;;2.88;1.48;;;;;;;;;;4984376;28;20492;-83
2023/07/29 10:09:21;;;;;;;3.00;1.35;;;;;;;;;;4972952;28;20122;-83
2023/07/29 10:11:49;;;;;;;5.03;1.48;;;;;;;;;;4973472;28;20046;-83
2023/07/29 10:14:15;;;;;;;2.13;1.50;;;;;;;;;;4992187;28;20071;-84
2023/07/29 10:16:44;;;;;;;1.92;1.50;;;;;;;;;;4997646;28;20073;-84
2023/07/29 10:19:12;;;;;;;2.05;1.30;;;;;;;;;;4975019;28;20038;-83
2023/07/29 10:21:40;;;;;;;3.00;1.42;;;;;;;;;;4990992;28;20061;-84
2023/07/29 10:24:10;;;;;;;1.88;1.55;;;;;;;;;;5010104;28;20180;-84
2023/07/29 10:26:37;;;;;;;2.78;1.48;;;;;;;;;;5009448;28;20041;-84
2023/07/29 10:29:05;;;;;;;2.30;1.60;;;;;;;;;;4991925;28;20065;-84
2023/07/29 10:31:31;;;;;;;2.28;1.42;;;;;;;;;;4978220;28;20054;-88
2023/07/29 10:33:58;;;;;;;1.65;1.40;;;;;;;;;;4999825;28;20042;-84
2023/07/29 10:36:24;;;;;;;3.85;1.75;;;;;;;;;;5006921;28;20113;-88
2023/07/29 10:38:50;;;;;;;2.53;1.70;;;;;;;;;;5009279;28;20053;-89
2023/07/29 10:41:16;;;;;;;3.35;1.70;;;;;;;;;;4987288;28;20050;-86
2023/07/29 10:43:42;;;;;;;2.63;1.70;;;;;;;;;;4981726;28;20042;-86
2023/07/29 10:46:21;;;;;;;2.05;1.50;;;;;;;;;;4992773;28;20395;-85
2023/07/29 10:48:50;;;;;;;2.45;1.83;;;;;;;;;;4972794;28;20487;-87
2023/07/29 10:51:36;;;;;;;2.33;1.98;;;;;;;;;;5002240;28;20080;-85
2023/07/29 10:54:03;;;;;;;1.83;1.73;;;;;;;;;;5019063;28;20037;-87
2023/07/29 10:56:33;;;;;;;3.17;2.17;;;;;;;;;;4999089;28;20038;-89
2023/07/29 10:59:17;;;;;;;2.42;2.03;;;;;;;;;;4991392;28;20042;-88
2023/07/29 11:01:51;;;;;;;3.03;1.90;;;;;;;;;;4990522;28;20176;-88
2023/07/29 11:04:20;;;;;;;3.55;1.83;;;;;;;;;;4993520;28;20038;-84
2023/07/29 11:07:04;;;;;;;3.78;2.40;;;;;;;;;;4997561;28;20042;-94
2023/07/29 11:10:00;;;;;;;3.25;2.63;;;;;;;;;;5029579;28;20180;-93
2023/07/29 11:12:35;;;;;;;2.45;2.22;;;;;;;;;;4992280;28;20107;-88
2023/07/29 11:15:10;;;;;;;3.85;2.95;;;;;;;;;;4995981;28;20038;-89
2023/07/29 11:17:37;;;;;;;2.95;2.17;;;;;;;;;;5001755;28;20046;-84
2023/07/29 11:20:03;;;;;;;2.75;2.42;;;;;;;;;;4986772;28;20429;-86
2023/07/29 11:22:30;;;;;;;2.97;2.60;;;;;;;;;;5005441;28;20034;-85
2023/07/29 11:24:56;;;;;;;3.58;2.50;;;;;;;;;;5004920;28;20046;-87
2023/07/29 11:27:22;;;;;;;2.60;2.13;;;;;;;;;;5014226;28;20057;-89
2023/07/29 11:29:48;;;;;;;2.85;2.58;;;;;;;;;;4991204;28;20073;-86
2023/07/29 11:32:14;;;;;;;4.50;2.53;;;;;;;;;;4988643;28;20042;-87
2023/07/29 11:34:41;;;;;;;4.03;2.65;;;;;;;;;;5005789;28;20177;-86
2023/07/29 11:37:09;;;;;;;2.80;1.85;;;;;;;;;;4997060;28;20046;-91
2023/07/29 11:39:40;;;;;;;3.22;1.70;;;;;;;;;;5018904;28;20041;-91
2023/07/29 11:42:07;;;;;;;3.42;1.80;;;;;;;;;;4995043;28;20129;-92
2023/07/29 11:44:33;;;;;;;1.92;1.42;;;;;;;;;;5009331;28;20042;-92
2023/07/29 11:46:59;;;;;;;4.70;1.83;;;;;;;;;;5013851;28;20046;-86
2023/07/29 11:49:25;;;;;;;5.45;1.70;;;;;;;;;;4995260;28;20045;-87
2023/07/29 11:51:51;;;;;;;3.40;1.63;;;;;;;;;;5011450;28;20038;-88
2023/07/29 11:54:21;;;;;;;3.22;1.23;;;;;;;;;;5012606;28;20090;-89
2023/07/29 11:56:47;;;;;;;;;;;;;;;;;;4991819;28;20046;-87
2023/07/29 11:59:13;;;;;;;4.47;1.70;;;;;;;;;;4993157;28;20358;-90
2023/07/29 12:01:39;;;;;;;1.90;1.20;;;;;;;;;;4998490;28;20054;-89
2023/07/29 12:04:05;;;;;;;4.43;1.70;;;;;;;;;;4992937;28;20075;-89
2023/07/29 12:06:31;;;;;;;4.22;2.00;;;;;;;;;;5015272;28;20173;-90
2023/07/29 12:08:57;;;;;;;3.40;1.52;;;;;;;;;;4989876;28;20057;-85
2023/07/29 12:11:24;;;;;;;3.30;1.67;;;;;;;;;;4988923;28;20050;-88
2023/07/29 12:13:50;;;;;;;3.15;1.73;;;;;;;;;;5010589;28;20041;-86
2023/07/29 12:16:19;;;;;;;2.38;1.52;;;;;;;;;;4988213;28;20112;-87
2023/07/29 12:18:45;;;;;;;2.40;1.50;;;;;;;;;;5009119;28;20294;-85
2023/07/29 12:21:11;;;;;;;4.20;1.80;;;;;;;;;;5013827;28;20033;-88
2023/07/29 12:23:37;;;;;;;2.22;1.25;;;;;;;;;;5017358;28;20526;-91
2023/07/29 12:26:03;;;;;;;3.90;1.63;;;;;;;;;;4993199;28;20399;-89
2023/07/29 12:28:29;;;;;;;4.82;1.60;;;;;;;;;;5004560;28;20038;-89
2023/07/29 12:30:55;;;;;;;4.03;1.33;;;;;;;;;;5013991;28;20049;-89
2023/07/29 12:33:35;;;;;;;1.58;1.23;;;;;;;;;;4995250;28;20050;-90
2023/07/29 12:36:02;;;;;;;2.47;1.77;;;;;;;;;;5002997;28;20056;-85
2023/07/29 12:38:28;;;;;;;2.45;1.70;;;;;;;;;;4994835;28;20050;-88
2023/07/29 12:40:54;;;;;;;3.00;1.90;;;;;;;;;;5014578;28;20061;-87
2023/07/29 12:43:20;;;;;;;3.08;1.50;;;;;;;;;;5013708;28;20046;-91
2023/07/29 12:45:46;;;;;;;3.03;1.58;;;;;;;;;;4996869;28;20050;-87
2023/07/29 12:48:12;;;;;;;2.47;1.63;;;;;;;;;;5017332;28;20034;-87
2023/07/29 12:50:39;;;;;;;2.47;1.85;;;;;;;;;;5014157;28;20042;-88
2023/07/29 12:53:05;;;;;;;3.30;1.60;;;;;;;;;;5018680;28;20481;-90
2023/07/29 12:55:31;;;;;;;3.58;1.38;;;;;;;;;;5001855;28;20073;-90
2023/07/29 12:57:58;;;;;;;2.22;1.30;;;;;;;;;;5011510;28;20045;-90
2023/07/29 13:00:25;;;;;;;3.15;1.40;;;;;;;;;;5020443;28;20407;-88
2023/07/29 13:02:51;;;;;;;2.55;1.60;;;;;;;;;;4993689;28;20077;-87
2023/07/29 13:05:17;;;;;;;3.25;1.45;;;;;;;;;;5006007;28;20399;-84
2023/07/29 13:07:43;;;;;;;2.83;1.13;;;;;;;;;;4974374;28;20048;-84
2023/07/29 13:10:12;;;;;;;2.10;1.40;;;;;;;;;;4984877;28;20042;-85
2023/07/29 13:12:38;;;;;;;3.40;1.10;;;;;;;;;;4977339;28;20053;-87
2023/07/29 13:15:05;;;;;;;1.55;1.10;;;;;;;;;;4985587;28;20542;-84
2023/07/29 13:17:31;;;;;;;3.33;1.20;;;;;;;;;;4998742;28;20068;-88
2023/07/29 13:19:57;;;;;;;2.88;1.50;;;;;;;;;;4991332;28;20057;-88
2023/07/29 13:22:23;;;;;;;3.42;1.40;;;;;;;;;;5006590;28;20045;-83
2023/07/29 13:24:49;;;;;;;2.90;1.23;;;;;;;;;;5007382;28;20058;-89
2023/07/29 13:27:15;;;;;;;3.25;1.50;;;;;;;;;;5007112;28;20040;-87
2023/07/29 13:29:43;;;;;;;4.95;1.23;;;;;;;;;;4986476;28;20042;-91
2023/07/29 13:32:09;;;;;;;1.98;1.15;;;;;;;;;;4993715;28;20046;-87
2023/07/29 13:34:35;;;;;;;1.35;1.20;;;;;;;;;;5009050;28;20077;-91
2023/07/29 13:37:01;;;;;;;3.03;1.35;;;;;;;;;;4993783;28;20088;-89
2023/07/29 13:39:27;;;;;;;2.05;1.00;;;;;;;;;;5007470;28;20061;-90
2023/07/29 13:41:53;;;;;;;3.42;1.23;;;;;;;;;;5004563;28;20035;-90
2023/07/29 13:44:19;;;;;;;1.88;1.20;;;;;;;;;;4974351;28;20038;-87
2023/07/29 13:46:45;;;;;;;2.30;1.10;;;;;;;;;;4995025;28;20388;-91
2023/07/29 13:49:11;;;;;;;3.63;1.48;;;;;;;;;;4992663;28;20046;-90
2023/07/29 13:51:37;;;;;;;2.00;1.02;;;;;;;;;;4991283;28;20735;-89
2023/07/29 13:54:04;;;;;;;4.10;1.88;;;;;;;;;;5008647;28;20046;-89
2023/07/29 13:56:30;;;;;;;3.20;1.77;;;;;;;;;;5001506;28;20037;-87
2023/07/29 13:58:56;;;;;;;2.67;1.15;;;;;;;;;;4998276;28;20046;-89
2023/07/29 14:01:22;;;;;;;2.63;1.35;;;;;;;;;;5012786;28;20041;-87
2023/07/29 14:03:49;;;;;;;4.85;1.92;;;;;;;;;;5005760;28;20721;-87
2023/07/29 14:06:15;;;;;;;3.15;1.70;;;;;;;;;;5001048;28;20113;-89
2023/07/29 14:08:41;;;;;;;3.40;1.52;;;;;;;;;;4994059;28;20455;-88
2023/07/29 14:11:08;;;;;;;1.85;1.30;;;;;;;;;;5005893;28;20053;-89
2023/07/29 14:13:34;;;;;;;2.17;1.38;;;;;;;;;;5008309;28;20681;-89
2023/07/29 14:16:03;;;;;;;3.45;1.58;;;;;;;;;;5002005;28;20141;-88
2023/07/29 14:18:29;;;;;;;3.08;1.55;;;;;;;;;;5007092;28;20464;-87
2023/07/29 14:20:55;;;;;;;3.00;1.63;;;;;;;;;;4974916;28;20130;-89
2023/07/29 14:23:21;;;;;;;4.15;1.45;;;;;;;;;;5005738;28;20109;-89
2023/07/29 14:25:47;;;;;;;2.95;1.70;;;;;;;;;;5003636;28;20129;-88
2023/07/29 14:28:14;;;;;;;2.03;1.40;;;;;;;;;;5005483;28;20120;-87
2023/07/29 14:30:41;;;;;;;1.92;1.27;;;;;;;;;;5007280;28;20061;-87
2023/07/29 14:33:07;;;;;;;2.53;1.17;;;;;;;;;;4989011;28;20125;-87
2023/07/29 14:35:33;;;;;;;2.50;1.20;;;;;;;;;;5009480;28;20042;-88
2023/07/29 14:37:59;;;;;;;1.60;1.20;;;;;;;;;;4996589;28;20049;-89
2023/07/29 14:40:26;;;;;;;2.50;1.27;;;;;;;;;;5010844;28;20066;-88